| time (UTC) | temp F | wind direction | speed knots | gust knots | rain 1hr in | rain 24hr in | rain mn in | humidity % | barometer mb |
| 20260906223528 | 99 | 164 | 1.7 | 5.2 | 0.00 | 0.00 | 0.00 | 42 | 1011.6 |
| 20260906223112 | 99 | 139 | 1.7 | 4.3 | 0.00 | 0.00 | 0.00 | 42 | 1011.6 |
| 20260906222612 | 99 | 136 | 1.7 | 6.1 | 0.00 | 0.00 | 0.00 | 42 | 1011.6 |
| 20260906222033 | 99 | 122 | 2.6 | 5.2 | 0.00 | 0.00 | 0.00 | 42 | 1011.6 |
| 20260906221616 | 99 | 135 | 2.6 | 5.2 | 0.00 | 0.00 | 0.00 | 42 | 1011.7 |
| 20260906221116 | 99 | 107 | 1.7 | 7.0 | 0.00 | 0.00 | 0.00 | 42 | 1011.7 |
| 20260906220554 | 100 | 180 | 1.7 | 2.6 | 0.00 | 0.00 | 0.00 | 42 | 1011.6 |
| 20260906220120 | 100 | 103 | 1.7 | 5.2 | 0.00 | 0.00 | 0.00 | 42 | 1011.7 |
| 20260906215600 | 101 | 119 | 0.9 | 4.3 | 0.00 | 0.00 | 0.00 | 41 | 1011.7 |
| 20260906215035 | 101 | 185 | 0.9 | 2.6 | 0.00 | 0.00 | 0.00 | 40 | 1011.8 |
| 20260906214535 | 100 | 141 | 0.9 | 2.6 | 0.00 | 0.00 | 0.00 | 41 | 1011.9 |
| 20260906214034 | 101 | 179 | 1.7 | 4.3 | 0.00 | 0.00 | 0.00 | 40 | 1012.0 |
| 20260906213554 | 101 | 164 | 0.9 | 2.6 | 0.00 | 0.00 | 0.00 | 41 | 1012.0 |
| 20260906213025 | 101 | 151 | 0.9 | 2.6 | 0.00 | 0.00 | 0.00 | 41 | 1012.1 |
| 20260906212608 | 101 | 135 | 0.9 | 2.6 | 0.00 | 0.00 | 0.00 | 41 | 1012.1 |
| 20260906212048 | 101 | 195 | 1.7 | 4.3 | 0.00 | 0.00 | 0.00 | 41 | 1012.1 |
| 20260906211535 | 101 | 131 | 1.7 | 4.3 | 0.00 | 0.00 | 0.00 | 40 | 1012.2 |
| 20260906211034 | 100 | 159 | 0.9 | 2.6 | 0.00 | 0.00 | 0.00 | 40 | 1012.4 |
| 20260906210534 | 100 | 167 | 1.7 | 4.3 | 0.00 | 0.00 | 0.00 | 40 | 1012.5 |
| 20260906210035 | 99 | 158 | 2.6 | 5.2 | 0.00 | 0.00 | 0.00 | 43 | 1012.6 |
| 20260906205528 | 99 | 152 | 1.7 | 1.7 | 0.00 | 0.00 | 0.00 | 43 | 1012.6 |
| 20260906205112 | 98 | 160 | 1.7 | 2.6 | 0.00 | 0.00 | 0.00 | 44 | 1012.7 |
| 20260906204552 | 97 | 171 | 1.7 | 4.3 | 0.00 | 0.00 | 0.00 | 44 | 1012.6 |
| 20260906204035 | 98 | 125 | 1.7 | 5.2 | 0.00 | 0.00 | 0.00 | 44 | 1012.7 |
| 20260906203534 | 99 | 133 | 3.5 | 7.0 | 0.00 | 0.00 | 0.00 | 43 | 1012.7 |
| 20260906203035 | 99 | 130 | 2.6 | 7.8 | 0.00 | 0.00 | 0.00 | 43 | 1012.7 |
| 20260906202534 | 99 | 184 | 0.9 | 2.6 | 0.00 | 0.00 | 0.00 | 43 | 1012.9 |
| 20260906202140 | 100 | 174 | 1.7 | 4.3 | 0.00 | 0.00 | 0.00 | 42 | 1012.9 |
| 20260906201600 | 99 | 133 | 1.7 | 4.3 | 0.00 | 0.00 | 0.00 | 43 | 1013.0 |
| 20260906201055 | 100 | 176 | 1.7 | 6.1 | 0.00 | 0.00 | 0.00 | 42 | 1013.0 |
| 20260906200535 | 98 | 149 | 2.6 | 6.1 | 0.00 | 0.00 | 0.00 | 45 | 1013.0 |
| 20260906200035 | 99 | 177 | 2.6 | 8.7 | 0.00 | 0.00 | 0.00 | 43 | 1013.0 |
| 20260906195534 | 99 | 164 | 1.7 | 5.2 | 0.00 | 0.00 | 0.00 | 42 | 1013.2 |
| 20260906195025 | 99 | 158 | 1.7 | 5.2 | 0.00 | 0.00 | 0.00 | 43 | 1013.2 |
| 20260906194608 | 98 | 180 | 1.7 | 4.3 | 0.00 | 0.00 | 0.00 | 44 | 1013.2 |
| 20260906194048 | 99 | 146 | 1.7 | 2.6 | 0.00 | 0.00 | 0.00 | 45 | 1013.3 |
| 20260906193534 | 99 | 153 | 1.7 | 2.6 | 0.00 | 0.00 | 0.00 | 44 | 1013.3 |
| 20260906193035 | 99 | 134 | 2.6 | 7.8 | 0.00 | 0.00 | 0.00 | 44 | 1013.3 |
| 20260906192520 | 100 | 146 | 1.7 | 4.3 | 0.00 | 0.00 | 0.00 | 44 | 1013.4 |
| 20260906192104 | 100 | 180 | 1.7 | 2.6 | 0.00 | 0.00 | 0.00 | 42 | 1013.4 |
| 20260906191535 | 100 | 185 | 0.9 | 2.6 | 0.00 | 0.00 | 0.00 | 42 | 1013.5 |
| 20260906191034 | 100 | 171 | 1.7 | 2.6 | 0.00 | 0.00 | 0.00 | 43 | 1013.5 |
| 20260906190534 | 99 | 151 | 1.7 | 6.1 | 0.00 | 0.00 | 0.00 | 44 | 1013.5 |
| 20260906190035 | 99 | 196 | 0.9 | 2.6 | 0.00 | 0.00 | 0.00 | 45 | 1013.5 |
| 20260906185554 | 98 | 160 | 1.7 | 2.6 | 0.00 | 0.00 | 0.00 | 46 | 1013.6 |
| 20260906185034 | 99 | 175 | 1.7 | 4.3 | 0.00 | 0.00 | 0.00 | 44 | 1013.7 |
| 20260906184535 | 98 | 161 | 2.6 | 7.8 | 0.00 | 0.00 | 0.00 | 45 | 1013.7 |
| 20260906184034 | 97 | 139 | 2.6 | 5.2 | 0.00 | 0.00 | 0.00 | 47 | 1013.7 |
| 20260906183555 | 98 | 147 | 1.7 | 5.2 | 0.00 | 0.00 | 0.00 | 45 | 1013.8 |
| 20260906183035 | 98 | 157 | 1.7 | 2.6 | 0.00 | 0.00 | 0.00 | 45 | 1013.9 |
| 20260906182521 | 98 | 145 | 1.7 | 5.2 | 0.00 | 0.00 | 0.00 | 46 | 1013.9 |
| 20260906182104 | 98 | 158 | 1.7 | 2.6 | 0.00 | 0.00 | 0.00 | 46 | 1014.0 |
| 20260906181545 | 98 | 184 | 0.9 | 1.7 | 0.00 | 0.00 | 0.00 | 45 | 1014.1 |
| 20260906181034 | 98 | 127 | 1.7 | 4.3 | 0.00 | 0.00 | 0.00 | 44 | 1014.2 |
| 20260906180534 | 98 | 198 | 0.9 | 2.6 | 0.00 | 0.00 | 0.00 | 45 | 1014.3 |
| 20260906180035 | 97 | 158 | 0.9 | 2.6 | 0.00 | 0.00 | 0.00 | 47 | 1014.4 |
| 20260906175528 | 96 | 122 | 1.7 | 5.2 | 0.00 | 0.00 | 0.00 | 47 | 1014.5 |
| 20260906175112 | 96 | 137 | 2.6 | 7.0 | 0.00 | 0.00 | 0.00 | 47 | 1014.6 |
| 20260906174632 | 96 | 139 | 1.7 | 2.6 | 0.00 | 0.00 | 0.00 | 48 | 1014.7 |
| 20260906174034 | 96 | 104 | 2.6 | 7.8 | 0.00 | 0.00 | 0.00 | 48 | 1014.8 |
| 20260906173535 | 96 | 119 | 0.9 | 4.3 | 0.00 | 0.00 | 0.00 | 48 | 1014.7 |
| 20260906173035 | 96 | 132 | 2.6 | 7.8 | 0.00 | 0.00 | 0.00 | 48 | 1014.9 |
| 20260906172554 | 96 | 124 | 1.7 | 5.2 | 0.00 | 0.00 | 0.00 | 47 | 1014.9 |
| 20260906172120 | 96 | 165 | 1.7 | 4.3 | 0.00 | 0.00 | 0.00 | 47 | 1014.9 |
| 20260906171601 | 96 | 142 | 2.6 | 5.2 | 0.00 | 0.00 | 0.00 | 46 | 1014.9 |
| 20260906171034 | 95 | 134 | 1.7 | 4.3 | 0.00 | 0.00 | 0.00 | 50 | 1015.0 |
| 20260906170534 | 95 | 135 | 1.7 | 6.1 | 0.00 | 0.00 | 0.00 | 50 | 1015.1 |
| 20260906170035 | 94 | 155 | 0.9 | 2.6 | 0.00 | 0.00 | 0.00 | 53 | 1015.1 |
| 20260906165534 | 95 | 96 | 1.7 | 5.2 | 0.00 | 0.00 | 0.00 | 52 | 1015.1 |
| 20260906165034 | 95 | 162 | 1.7 | 4.3 | 0.00 | 0.00 | 0.00 | 51 | 1015.2 |
| 20260906164535 | 95 | 136 | 1.7 | 4.3 | 0.00 | 0.00 | 0.00 | 51 | 1015.3 |
| 20260906164034 | 95 | 173 | 1.7 | 1.7 | 0.00 | 0.00 | 0.00 | 51 | 1015.3 |
| 20260906163534 | 95 | 161 | 2.6 | 7.0 | 0.00 | 0.00 | 0.00 | 52 | 1015.4 |
| 20260906163034 | 95 | 174 | 0.9 | 4.3 | 0.00 | 0.00 | 0.00 | 53 | 1015.4 |
| 20260906162534 | 94 | 173 | 1.7 | 4.3 | 0.00 | 0.00 | 0.00 | 53 | 1015.3 |
| 20260906162120 | 94 | 179 | 0.9 | 1.7 | 0.00 | 0.00 | 0.00 | 55 | 1015.4 |
| 20260906161640 | 94 | 112 | 1.7 | 4.3 | 0.00 | 0.00 | 0.00 | 54 | 1015.2 |
| 20260906161040 | 94 | 177 | 0.9 | 1.7 | 0.00 | 0.00 | 0.00 | 54 | 1015.3 |
| 20260906160534 | 93 | 162 | 0.9 | 0.9 | 0.00 | 0.00 | 0.00 | 55 | 1015.4 |
| 20260906160055 | 93 | 154 | 1.7 | 4.3 | 0.00 | 0.00 | 0.00 | 55 | 1015.4 |
| 20260906155534 | 93 | 141 | 1.7 | 5.2 | 0.00 | 0.00 | 0.00 | 55 | 1015.4 |
| 20260906155034 | 92 | 119 | 1.7 | 2.6 | 0.00 | 0.00 | 0.00 | 54 | 1015.4 |
| 20260906154541 | 92 | 157 | 1.7 | 4.3 | 0.00 | 0.00 | 0.00 | 55 | 1015.2 |
| 20260906154048 | 92 | 152 | 1.7 | 2.6 | 0.00 | 0.00 | 0.00 | 57 | 1015.3 |
| 20260906153534 | 92 | 177 | 0.9 | 1.7 | 0.00 | 0.00 | 0.00 | 60 | 1015.3 |
| 20260906153035 | 91 | 145 | 0.9 | 1.7 | 0.00 | 0.00 | 0.00 | 61 | 1015.2 |
| 20260906152554 | 91 | 132 | 0.9 | 2.6 | 0.00 | 0.00 | 0.00 | 61 | 1015.1 |
| 20260906152052 | 91 | 118 | 0.9 | 1.7 | 0.00 | 0.00 | 0.00 | 63 | 1015.1 |
| 20260906151617 | 90 | 169 | 0.9 | 1.7 | 0.00 | 0.00 | 0.00 | 64 | 1015.2 |
| 20260906151116 | 90 | 169 | 0.9 | 1.7 | 0.00 | 0.00 | 0.00 | 64 | 1015.1 |
| 20260906150534 | 89 | 161 | 0.9 | 1.7 | 0.00 | 0.00 | 0.00 | 65 | 1014.9 |
| 20260906150035 | 88 | 165 | 0.9 | 0.9 | 0.00 | 0.00 | 0.00 | 67 | 1014.9 |
| 20260906145534 | 88 | 150 | 0.9 | 1.7 | 0.00 | 0.00 | 0.00 | 67 | 1014.9 |
| 20260906145034 | 88 | 104 | 0.9 | 2.6 | 0.00 | 0.00 | 0.00 | 67 | 1014.9 |
| 20260906144521 | 88 | 176 | 0.9 | 0.9 | 0.00 | 0.00 | 0.00 | 68 | 1014.8 |
| 20260906144104 | 88 | 151 | 0.9 | 1.7 | 0.00 | 0.00 | 0.00 | 68 | 1014.9 |
| 20260906143534 | 87 | 177 | 0.0 | 0.9 | 0.00 | 0.00 | 0.00 | 69 | 1014.8 |
| 20260906143035 | 87 | 176 | 0.9 | 0.9 | 0.00 | 0.00 | 0.00 | 69 | 1014.8 |
| 20260906142534 | 87 | 173 | 0.0 | 0.9 | 0.00 | 0.00 | 0.00 | 69 | 1015.0 |
| 20260906142033 | 87 | 149 | 0.0 | 0.9 | 0.00 | 0.00 | 0.00 | 70 | 1014.9 |
| 20260906141616 | 87 | 171 | 0.0 | 0.9 | 0.00 | 0.00 | 0.00 | 71 | 1014.9 |
| 20260906141056 | 86 | 148 | 0.0 | 0.9 | 0.00 | 0.00 | 0.00 | 72 | 1014.9 |
| 20260906140535 | 86 | 155 | 0.0 | 0.9 | 0.00 | 0.00 | 0.00 | 72 | 1014.9 |
| 20260906140035 | 86 | 160 | 0.0 | 0.9 | 0.00 | 0.00 | 0.00 | 72 | 1014.9 |
| 20260906135534 | 86 | 118 | 0.9 | 4.3 | 0.00 | 0.00 | 0.00 | 72 | 1014.9 |
| 20260906135035 | 86 | 146 | 0.9 | 1.7 | 0.00 | 0.00 | 0.00 | 72 | 1014.9 |
| 20260906134522 | 85 | 135 | 0.0 | 0.9 | 0.00 | 0.00 | 0.00 | 73 | 1014.9 |
| 20260906134104 | 85 | 148 | 0.9 | 2.6 | 0.00 | 0.00 | 0.00 | 74 | 1015.0 |
| 20260906133544 | 84 | 149 | 0.9 | 0.9 | 0.00 | 0.00 | 0.00 | 75 | 1015.2 |
| 20260906133035 | 83 | 154 | 0.9 | 1.7 | 0.00 | 0.00 | 0.00 | 76 | 1015.0 |
| 20260906132534 | 83 | 162 | 0.9 | 2.6 | 0.00 | 0.00 | 0.00 | 77 | 1015.0 |
| 20260906132054 | 81 | 167 | 0.0 | 0.9 | 0.00 | 0.00 | 0.00 | 80 | 1015.1 |
| 20260906131529 | 79 | 174 | 0.0 | 0.9 | 0.00 | 0.00 | 0.00 | 84 | 1015.0 |
| 20260906131112 | 77 | 0.0 | 0.0 | 0.00 | 0.00 | 0.00 | 87 | 1014.9 | |
| 20260906130552 | 77 | 0.0 | 0.0 | 0.00 | 0.00 | 0.00 | 88 | 1014.9 | |
| 20260906130034 | 76 | 0.0 | 0.0 | 0.00 | 0.00 | 0.00 | 89 | 1014.7 | |
| 20260906125529 | 76 | 0.0 | 0.0 | 0.00 | 0.00 | 0.00 | 89 | 1014.7 | |
| 20260906125113 | 76 | 0.0 | 0.0 | 0.00 | 0.00 | 0.00 | 89 | 1014.6 | |
| 20260906124552 | 76 | 0.0 | 0.0 | 0.00 | 0.00 | 0.00 | 88 | 1014.6 | |
| 20260906124034 | 76 | 0.0 | 0.0 | 0.00 | 0.00 | 0.00 | 88 | 1014.6 | |
| 20260906123534 | 76 | 0.0 | 0.0 | 0.00 | 0.00 | 0.00 | 88 | 1014.6 | |
| 20260906123034 | 76 | 0.0 | 0.0 | 0.00 | 0.00 | 0.00 | 88 | 1014.6 | |
| 20260906122554 | 76 | 0.0 | 0.0 | 0.00 | 0.00 | 0.00 | 88 | 1014.5 | |
| 20260906122034 | 76 | 0.0 | 0.0 | 0.00 | 0.00 | 0.00 | 88 | 1014.4 | |
| 20260906121530 | 76 | 174 | 0.0 | 0.9 | 0.00 | 0.00 | 0.00 | 88 | 1014.4 |
| 20260906121112 | 76 | 0.0 | 0.0 | 0.00 | 0.00 | 0.00 | 88 | 1014.3 | |
| 20260906120613 | 76 | 0.0 | 0.0 | 0.00 | 0.00 | 0.00 | 88 | 1014.2 | |
| 20260906120055 | 76 | 0.0 | 0.0 | 0.00 | 0.00 | 0.00 | 88 | 1014.3 | |
| 20260906115534 | 76 | 0.0 | 0.0 | 0.00 | 0.00 | 0.00 | 87 | 1014.2 | |
| 20260906115054 | 76 | 174 | 0.0 | 0.9 | 0.00 | 0.00 | 0.00 | 87 | 1014.1 |
| 20260906114535 | 76 | 175 | 0.0 | 0.9 | 0.00 | 0.00 | 0.00 | 87 | 1014.0 |
| 20260906114120 | 77 | 0.0 | 0.0 | 0.00 | 0.00 | 0.00 | 87 | 1014.1 | |
| 20260906113600 | 77 | 0.0 | 0.0 | 0.00 | 0.00 | 0.00 | 87 | 1014.1 | |
| 20260906113055 | 76 | 176 | 0.0 | 0.9 | 0.00 | 0.00 | 0.00 | 87 | 1014.0 |
| 20260906112534 | 76 | 0.0 | 0.0 | 0.00 | 0.00 | 0.00 | 87 | 1014.0 | |
| 20260906112034 | 76 | 0.0 | 0.0 | 0.00 | 0.00 | 0.00 | 87 | 1014.0 | |
| 20260906111535 | 77 | 0.0 | 0.0 | 0.00 | 0.00 | 0.00 | 87 | 1013.9 | |
| 20260906111025 | 77 | 0.0 | 0.0 | 0.00 | 0.00 | 0.00 | 87 | 1014.0 | |
| 20260906110609 | 77 | 178 | 0.0 | 0.9 | 0.00 | 0.00 | 0.00 | 86 | 1013.9 |
| 20260906110110 | 77 | 0.0 | 0.0 | 0.00 | 0.00 | 0.00 | 86 | 1013.9 | |
| 20260906105534 | 77 | 0.0 | 0.0 | 0.00 | 0.00 | 0.00 | 86 | 1013.8 | |
| 20260906105034 | 77 | 178 | 0.0 | 0.9 | 0.00 | 0.00 | 0.00 | 86 | 1013.7 |
| 20260906104534 | 77 | 178 | 0.0 | 0.9 | 0.00 | 0.00 | 0.00 | 86 | 1013.5 |
| 20260906104033 | 77 | 178 | 0.0 | 0.9 | 0.00 | 0.00 | 0.00 | 86 | 1013.7 |
| 20260906103618 | 77 | 178 | 0.0 | 0.9 | 0.00 | 0.00 | 0.00 | 86 | 1013.7 |
| 20260906103056 | 77 | 178 | 0.0 | 0.9 | 0.00 | 0.00 | 0.00 | 86 | 1013.6 |
| 20260906102534 | 77 | 178 | 0.0 | 0.9 | 0.00 | 0.00 | 0.00 | 85 | 1013.7 |
| 20260906102034 | 77 | 0.0 | 0.0 | 0.00 | 0.00 | 0.00 | 85 | 1013.7 | |
| 20260906101535 | 78 | 0.0 | 0.0 | 0.00 | 0.00 | 0.00 | 85 | 1013.6 | |
| 20260906101054 | 78 | 178 | 0.0 | 0.9 | 0.00 | 0.00 | 0.00 | 85 | 1013.6 |
| 20260906100614 | 78 | 178 | 0.0 | 0.9 | 0.00 | 0.00 | 0.00 | 85 | 1013.5 |
| 20260906100034 | 78 | 0.0 | 0.0 | 0.00 | 0.00 | 0.00 | 85 | 1013.5 | |
| 20260906095616 | 78 | 178 | 0.0 | 0.9 | 0.00 | 0.00 | 0.00 | 85 | 1013.5 |
| 20260906095057 | 78 | 178 | 0.0 | 0.9 | 0.00 | 0.00 | 0.00 | 85 | 1013.5 |
| 20260906094535 | 78 | 0.0 | 0.0 | 0.00 | 0.00 | 0.00 | 85 | 1013.5 | |
| 20260906094034 | 78 | 0.0 | 0.0 | 0.00 | 0.00 | 0.00 | 84 | 1013.4 | |
| 20260906093534 | 78 | 178 | 0.0 | 0.9 | 0.00 | 0.00 | 0.00 | 84 | 1013.4 |
| 20260906093026 | 78 | 0.0 | 0.0 | 0.00 | 0.00 | 0.00 | 84 | 1013.4 | |
| 20260906092608 | 78 | 178 | 0.0 | 0.9 | 0.00 | 0.00 | 0.00 | 84 | 1013.2 |
| 20260906092108 | 78 | 0.0 | 0.0 | 0.00 | 0.00 | 0.00 | 84 | 1013.2 | |
| 20260906091550 | 78 | 178 | 0.0 | 0.9 | 0.00 | 0.00 | 0.00 | 84 | 1013.2 |
| 20260906091112 | 79 | 178 | 0.0 | 0.9 | 0.00 | 0.00 | 0.00 | 83 | 1013.1 |
| 20260906090613 | 79 | 179 | 0.0 | 0.9 | 0.00 | 0.00 | 0.00 | 83 | 1013.0 |
| 20260906090034 | 79 | 181 | 0.0 | 0.9 | 0.00 | 0.00 | 0.00 | 83 | 1013.0 |
| 20260906085529 | 79 | 181 | 0.0 | 0.9 | 0.00 | 0.00 | 0.00 | 84 | 1012.9 |
| 20260906085112 | 79 | 0.0 | 0.0 | 0.00 | 0.00 | 0.00 | 83 | 1012.9 | |
| 20260906084552 | 79 | 0.0 | 0.0 | 0.00 | 0.00 | 0.00 | 83 | 1013.0 | |
| 20260906084033 | 80 | 0.0 | 0.0 | 0.00 | 0.00 | 0.00 | 82 | 1013.0 | |
| 20260906083617 | 80 | 182 | 0.0 | 0.9 | 0.00 | 0.00 | 0.00 | 81 | 1013.1 |
| 20260906083035 | 80 | 182 | 0.0 | 0.9 | 0.00 | 0.00 | 0.00 | 81 | 1013.1 |
| 20260906082541 | 80 | 182 | 0.0 | 0.9 | 0.00 | 0.00 | 0.00 | 82 | 1013.0 |
| 20260906082105 | 80 | 182 | 0.0 | 0.9 | 0.00 | 0.00 | 0.00 | 81 | 1013.0 |
| 20260906081545 | 80 | 0.0 | 0.0 | 0.00 | 0.00 | 0.00 | 81 | 1012.9 | |
| 20260906081034 | 80 | 183 | 0.9 | 1.7 | 0.00 | 0.00 | 0.00 | 80 | 1012.9 |
| 20260906080521 | 80 | 180 | 0.9 | 0.9 | 0.00 | 0.00 | 0.00 | 80 | 1012.8 |
| 20260906080105 | 80 | 179 | 0.9 | 0.9 | 0.00 | 0.00 | 0.00 | 80 | 1013.0 |
| 20260906075544 | 80 | 179 | 0.9 | 0.9 | 0.00 | 0.00 | 0.00 | 80 | 1013.1 |
| 20260906075025 | 80 | 179 | 0.9 | 0.9 | 0.00 | 0.00 | 0.00 | 80 | 1013.3 |
| 20260906074628 | 80 | 178 | 0.0 | 0.9 | 0.00 | 0.00 | 0.00 | 81 | 1013.4 |
| 20260906074048 | 80 | 178 | 0.0 | 0.9 | 0.00 | 0.00 | 0.00 | 81 | 1013.4 |
| 20260906073529 | 80 | 178 | 0.0 | 0.9 | 0.00 | 0.00 | 0.00 | 81 | 1013.5 |
| 20260906073112 | 80 | 0.0 | 0.0 | 0.00 | 0.00 | 0.00 | 81 | 1013.5 | |
| 20260906072552 | 80 | 0.0 | 0.0 | 0.00 | 0.00 | 0.00 | 82 | 1013.4 | |
| 20260906072033 | 80 | 178 | 0.0 | 0.9 | 0.00 | 0.00 | 0.00 | 82 | 1013.3 |
| 20260906071617 | 80 | 178 | 0.0 | 0.9 | 0.00 | 0.00 | 0.00 | 82 | 1013.2 |
| 20260906071056 | 80 | 0.0 | 0.0 | 0.00 | 0.00 | 0.00 | 82 | 1013.2 | |
| 20260906070534 | 80 | 0.0 | 0.0 | 0.00 | 0.00 | 0.00 | 81 | 1013.1 | |
| 20260906070121 | 80 | 0.0 | 0.0 | 0.00 | 0.00 | 0.00 | 82 | 1013.1 | |
| 20260906065600 | 80 | 0.0 | 0.0 | 0.00 | 0.00 | 0.00 | 82 | 1013.4 | |
| 20260906065034 | 80 | 0.0 | 0.0 | 0.00 | 0.00 | 0.00 | 81 | 1013.4 | |
| 20260906064534 | 80 | 0.0 | 0.0 | 0.00 | 0.00 | 0.00 | 81 | 1013.5 | |
| 20260906064121 | 80 | 0.0 | 0.0 | 0.00 | 0.00 | 0.00 | 81 | 1013.6 | |
| 20260906063600 | 80 | 0.0 | 0.0 | 0.00 | 0.00 | 0.00 | 80 | 1013.6 | |
| 20260906063034 | 80 | 0.0 | 0.0 | 0.00 | 0.00 | 0.00 | 80 | 1013.5 | |
| 20260906062534 | 81 | 0.0 | 0.0 | 0.00 | 0.00 | 0.00 | 79 | 1013.6 | |
| 20260906062033 | 81 | 0.0 | 0.0 | 0.00 | 0.00 | 0.00 | 78 | 1013.5 | |
| 20260906061616 | 81 | 178 | 0.0 | 0.9 | 0.00 | 0.00 | 0.00 | 77 | 1013.4 |
| 20260906061057 | 82 | 178 | 0.0 | 0.9 | 0.00 | 0.00 | 0.00 | 77 | 1013.5 |
| 20260906060535 | 82 | 178 | 0.0 | 0.9 | 0.00 | 0.00 | 0.00 | 76 | 1013.5 |
| 20260906060121 | 82 | 178 | 0.0 | 0.9 | 0.00 | 0.00 | 0.00 | 75 | 1013.6 |
| 20260906055601 | 83 | 178 | 0.9 | 0.9 | 0.00 | 0.00 | 0.00 | 75 | 1013.6 |
| 20260906055040 | 83 | 177 | 0.9 | 0.9 | 0.00 | 0.00 | 0.00 | 74 | 1013.7 |
| 20260906054535 | 83 | 174 | 0.9 | 0.9 | 0.00 | 0.00 | 0.00 | 74 | 1013.6 |
| 20260906054034 | 83 | 174 | 0.9 | 0.9 | 0.00 | 0.00 | 0.00 | 74 | 1013.7 |
| 20260906053535 | 83 | 174 | 0.0 | 0.9 | 0.00 | 0.00 | 0.00 | 73 | 1013.6 |
| 20260906053026 | 83 | 174 | 0.0 | 0.9 | 0.00 | 0.00 | 0.00 | 73 | 1013.6 |
| 20260906052609 | 83 | 174 | 0.0 | 0.9 | 0.00 | 0.00 | 0.00 | 74 | 1013.6 |
| 20260906052049 | 82 | 174 | 0.0 | 0.9 | 0.00 | 0.00 | 0.00 | 74 | 1013.6 |
| 20260906051535 | 82 | 0.0 | 0.0 | 0.00 | 0.00 | 0.00 | 75 | 1013.7 | |
| 20260906051034 | 82 | 0.0 | 0.0 | 0.00 | 0.00 | 0.00 | 75 | 1013.7 | |
| 20260906050555 | 82 | 0.0 | 0.0 | 0.00 | 0.00 | 0.00 | 74 | 1013.6 | |
| 20260906050118 | 83 | 0.0 | 0.0 | 0.00 | 0.00 | 0.00 | 73 | 1013.7 | |
| 20260906045555 | 83 | 0.0 | 0.0 | 0.00 | 0.00 | 0.00 | 72 | 1013.6 | |
| 20260906045034 | 84 | 0.0 | 0.0 | 0.00 | 0.00 | 0.00 | 72 | 1013.6 | |
| 20260906044535 | 84 | 0.0 | 0.0 | 0.00 | 0.00 | 0.00 | 71 | 1013.5 | |
| 20260906044034 | 84 | 174 | 0.0 | 0.9 | 0.00 | 0.00 | 0.00 | 71 | 1013.5 |
| 20260906043534 | 84 | 170 | 0.0 | 0.9 | 0.00 | 0.00 | 0.00 | 71 | 1013.4 |
| 20260906043035 | 84 | 0.0 | 0.0 | 0.00 | 0.00 | 0.00 | 71 | 1013.5 | |
| 20260906042534 | 85 | 0.0 | 0.0 | 0.00 | 0.00 | 0.00 | 70 | 1013.4 | |
| 20260906042055 | 85 | 178 | 0.9 | 1.7 | 0.00 | 0.00 | 0.00 | 70 | 1013.4 |
| 20260906041535 | 85 | 178 | 0.0 | 0.9 | 0.00 | 0.00 | 0.00 | 69 | 1013.5 |
| 20260906041035 | 85 | 176 | 0.0 | 0.9 | 0.00 | 0.00 | 0.00 | 69 | 1013.4 |
| 20260906040534 | 85 | 174 | 0.0 | 0.9 | 0.00 | 0.00 | 0.00 | 68 | 1013.3 |
| 20260906040035 | 86 | 166 | 0.0 | 1.7 | 0.00 | 0.00 | 0.00 | 68 | 1013.4 |
| 20260906035535 | 86 | 186 | 0.0 | 1.7 | 0.00 | 0.00 | 0.00 | 67 | 1013.5 |
| 20260906035034 | 86 | 174 | 0.9 | 1.7 | 0.00 | 0.00 | 0.00 | 66 | 1013.4 |
| 20260906034535 | 86 | 179 | 0.9 | 1.7 | 0.00 | 0.00 | 0.00 | 66 | 1013.4 |
| 20260906034034 | 86 | 173 | 0.0 | 0.9 | 0.00 | 0.00 | 0.00 | 66 | 1013.4 |
| 20260906033534 | 87 | 173 | 0.9 | 1.7 | 0.00 | 0.00 | 0.00 | 65 | 1013.4 |
| 20260906033034 | 87 | 179 | 0.9 | 0.9 | 0.00 | 0.00 | 0.00 | 65 | 1013.4 |
| 20260906032535 | 87 | 177 | 0.0 | 0.9 | 0.00 | 0.00 | 0.00 | 64 | 1013.5 |
| 20260906032035 | 87 | 181 | 0.9 | 1.7 | 0.00 | 0.00 | 0.00 | 63 | 1013.4 |
| 20260906031535 | 87 | 178 | 0.9 | 1.7 | 0.00 | 0.00 | 0.00 | 63 | 1013.3 |
| 20260906031035 | 87 | 186 | 0.9 | 1.7 | 0.00 | 0.00 | 0.00 | 63 | 1013.2 |
| 20260906030534 | 88 | 174 | 0.9 | 2.6 | 0.00 | 0.00 | 0.00 | 63 | 1013.3 |
| 20260906030035 | 88 | 180 | 0.9 | 1.7 | 0.00 | 0.00 | 0.00 | 61 | 1013.2 |
| 20260906025550 | 89 | 183 | 1.7 | 1.7 | 0.00 | 0.00 | 0.00 | 61 | 1013.2 |
| 20260906025113 | 89 | 179 | 1.7 | 2.6 | 0.00 | 0.00 | 0.00 | 60 | 1013.2 |
| 20260906024553 | 89 | 187 | 1.7 | 2.6 | 0.00 | 0.00 | 0.00 | 59 | 1013.1 |
| 20260906024115 | 89 | 184 | 1.7 | 2.6 | 0.00 | 0.00 | 0.00 | 59 | 1013.0 |
| 20260906023535 | 88 | 181 | 0.9 | 2.6 | 0.00 | 0.00 | 0.00 | 59 | 1012.9 |
| 20260906023035 | 88 | 171 | 0.9 | 1.7 | 0.00 | 0.00 | 0.00 | 58 | 1012.7 |
| 20260906022535 | 88 | 181 | 0.9 | 1.7 | 0.00 | 0.00 | 0.00 | 57 | 1012.7 |
| 20260906022034 | 87 | 192 | 0.9 | 2.6 | 0.00 | 0.00 | 0.00 | 56 | 1012.6 |
| 20260906021536 | 87 | 0.0 | 0.0 | 0.00 | 0.00 | 0.00 | 55 | 1012.5 | |
| 20260906021034 | 87 | 0.0 | 0.0 | 0.00 | 0.00 | 0.00 | 55 | 1012.4 | |
| 20260906020534 | 87 | 0.0 | 0.0 | 0.00 | 0.00 | 0.00 | 54 | 1012.3 | |
| 20260906020034 | 88 | 0.0 | 0.0 | 0.00 | 0.00 | 0.00 | 54 | 1012.1 | |
| 20260906015534 | 88 | 0.0 | 0.0 | 0.00 | 0.00 | 0.00 | 54 | 1012.1 | |
| 20260906015035 | 88 | 0.0 | 0.0 | 0.00 | 0.00 | 0.00 | 54 | 1012.0 | |
| 20260906014534 | 89 | 0.0 | 0.0 | 0.00 | 0.00 | 0.00 | 53 | 1011.9 | |
| 20260906014034 | 89 | 149 | 0.0 | 0.9 | 0.00 | 0.00 | 0.00 | 53 | 1012.0 |
| 20260906013534 | 89 | 0.0 | 0.0 | 0.00 | 0.00 | 0.00 | 53 | 1011.9 | |
| 20260906013034 | 88 | 0.0 | 0.0 | 0.00 | 0.00 | 0.00 | 54 | 1011.9 | |
| 20260906012534 | 88 | 0.0 | 0.0 | 0.00 | 0.00 | 0.00 | 54 | 1011.8 | |
| 20260906012034 | 89 | 0.0 | 0.0 | 0.00 | 0.00 | 0.00 | 53 | 1011.7 | |
| 20260906011535 | 89 | 0.0 | 0.0 | 0.00 | 0.00 | 0.00 | 53 | 1011.7 | |
| 20260906011035 | 89 | 0.0 | 0.0 | 0.00 | 0.00 | 0.00 | 53 | 1011.7 | |
| 20260906010534 | 90 | 0.0 | 0.0 | 0.00 | 0.00 | 0.00 | 52 | 1011.7 | |
| 20260906010035 | 91 | 0.0 | 0.0 | 0.00 | 0.00 | 0.00 | 51 | 1011.7 | |
| 20260906005534 | 91 | 0.0 | 0.0 | 0.00 | 0.00 | 0.00 | 50 | 1011.6 | |
| 20260906005025 | 92 | 0.0 | 0.0 | 0.00 | 0.00 | 0.00 | 50 | 1011.6 | |
| 20260906004629 | 93 | 0.0 | 0.0 | 0.00 | 0.00 | 0.00 | 49 | 1011.7 | |
| 20260906004049 | 93 | 148 | 0.0 | 0.9 | 0.00 | 0.00 | 0.00 | 48 | 1011.5 |
| 20260906003554 | 94 | 155 | 0.0 | 0.9 | 0.00 | 0.00 | 0.00 | 47 | 1011.6 |
| 20260906003035 | 94 | 139 | 0.9 | 4.3 | 0.00 | 0.00 | 0.00 | 47 | 1011.5 |
| 20260906002534 | 94 | 144 | 0.9 | 1.7 | 0.00 | 0.00 | 0.00 | 46 | 1011.5 |
| 20260906002054 | 95 | 140 | 0.9 | 2.6 | 0.00 | 0.00 | 0.00 | 46 | 1011.5 |
| 20260906001637 | 95 | 143 | 0.9 | 1.7 | 0.00 | 0.00 | 0.00 | 45 | 1011.5 |
| 20260906001057 | 95 | 133 | 0.9 | 4.3 | 0.00 | 0.00 | 0.00 | 45 | 1011.5 |
| 20260906000535 | 95 | 157 | 0.9 | 4.3 | 0.00 | 0.00 | 0.00 | 45 | 1011.5 |
| 20260906000035 | 96 | 159 | 0.9 | 1.7 | 0.00 | 0.00 | 0.00 | 45 | 1011.4 |
| 20260905235534 | 96 | 161 | 0.0 | 0.9 | 0.00 | 0.00 | 0.00 | 44 | 1011.4 |
| 20260905235034 | 97 | 178 | 0.9 | 1.7 | 0.00 | 0.00 | 0.00 | 43 | 1011.2 |
| 20260905234615 | 97 | 158 | 0.0 | 0.9 | 0.00 | 0.00 | 0.00 | 42 | 1011.3 |
| 20260905234034 | 98 | 145 | 0.0 | 0.9 | 0.00 | 0.00 | 0.00 | 42 | 1011.4 |
| 20260905233554 | 99 | 131 | 0.9 | 1.7 | 0.00 | 0.00 | 0.00 | 41 | 1011.2 |
| 20260905233054 | 99 | 151 | 0.9 | 1.7 | 0.00 | 0.00 | 0.00 | 39 | 1011.3 |
| 20260905232534 | 99 | 98 | 0.9 | 2.6 | 0.00 | 0.00 | 0.00 | 40 | 1011.2 |
| 20260905232034 | 100 | 127 | 0.9 | 2.6 | 0.00 | 0.00 | 0.00 | 39 | 1011.2 |
| 20260905231535 | 100 | 162 | 0.9 | 2.6 | 0.00 | 0.00 | 0.00 | 39 | 1011.3 |
| 20260905231035 | 101 | 153 | 0.0 | 1.7 | 0.00 | 0.00 | 0.00 | 38 | 1011.1 |
| 20260905230534 | 100 | 173 | 0.9 | 0.9 | 0.00 | 0.00 | 0.00 | 38 | 1011.2 |
| 20260905230035 | 101 | 174 | 0.9 | 1.7 | 0.00 | 0.00 | 0.00 | 39 | 1011.1 |
| 20260905225534 | 100 | 173 | 0.0 | 0.9 | 0.00 | 0.00 | 0.00 | 39 | 1011.3 |
| 20260905225134 | 99 | 185 | 0.0 | 0.9 | 0.00 | 0.00 | 0.00 | 40 | 1011.2 |
| 20260905224535 | 99 | 177 | 0.9 | 1.7 | 0.00 | 0.00 | 0.00 | 40 | 1011.2 |
| 20260905224054 | 99 | 157 | 1.7 | 4.3 | 0.00 | 0.00 | 0.00 | 40 | 1011.2 |